createdAt,value
2022-08-24T00:01:58.058Z,24.60
2022-08-24T00:04:26.610Z,24.60
2022-08-24T00:06:56.165Z,24.60
2022-08-24T00:09:24.309Z,24.50
2022-08-24T00:11:53.428Z,24.40
2022-08-24T00:14:21.323Z,24.40
2022-08-24T00:16:49.178Z,24.40
2022-08-24T00:19:17.591Z,24.40
2022-08-24T00:21:45.486Z,24.30
2022-08-24T00:24:14.549Z,24.30
2022-08-24T00:26:42.413Z,24.30
2022-08-24T00:29:11.586Z,24.20
2022-08-24T00:31:39.478Z,24.20
2022-08-24T00:34:07.768Z,24.20
2022-08-24T00:36:36.148Z,24.20
2022-08-24T00:39:05.659Z,24.20
2022-08-24T00:41:33.733Z,24.20
2022-08-24T00:44:04.884Z,24.20
2022-08-24T00:46:43.534Z,24.20
2022-08-24T00:49:15.277Z,24.20
2022-08-24T00:51:47.637Z,24.20
2022-08-24T00:54:19.006Z,24.20
2022-08-24T00:56:49.707Z,24.10
2022-08-24T00:59:22.199Z,24.00
2022-08-24T01:01:53.246Z,24.00
2022-08-24T01:04:35.373Z,24.00
2022-08-24T01:07:04.340Z,24.00
2022-08-24T01:09:32.152Z,23.90
2022-08-24T01:12:00.040Z,23.90
2022-08-24T01:14:28.038Z,23.80
2022-08-24T01:17:14.887Z,23.80
2022-08-24T01:19:45.339Z,23.70
2022-08-24T01:22:38.138Z,23.70
2022-08-24T01:25:08.680Z,23.70
2022-08-24T01:27:37.644Z,23.80
2022-08-24T01:30:12.753Z,23.80
2022-08-24T01:32:41.194Z,23.80
2022-08-24T01:35:09.819Z,23.80
2022-08-24T01:37:38.033Z,23.80
2022-08-24T01:40:10.640Z,23.70
2022-08-24T01:42:38.563Z,23.70
2022-08-24T01:45:08.368Z,23.70
2022-08-24T01:47:36.186Z,23.70
2022-08-24T01:50:04.724Z,23.70
2022-08-24T01:52:54.943Z,23.70
2022-08-24T01:55:22.817Z,23.70
2022-08-24T01:57:50.798Z,23.80
2022-08-24T02:00:18.855Z,23.80
2022-08-24T02:02:47.086Z,23.80
2022-08-24T02:05:16.527Z,23.80
2022-08-24T02:07:44.480Z,23.70
2022-08-24T02:10:15.297Z,23.70
2022-08-24T02:12:47.007Z,23.60
2022-08-24T02:15:14.815Z,23.60
2022-08-24T02:17:42.602Z,23.60
2022-08-24T02:20:11.144Z,23.60
2022-08-24T02:22:38.931Z,23.50
2022-08-24T02:25:07.049Z,23.40
2022-08-24T02:27:36.149Z,23.40
2022-08-24T02:30:06.176Z,23.50
2022-08-24T02:32:33.979Z,23.50
2022-08-24T02:35:01.909Z,23.50
2022-08-24T02:37:29.677Z,23.50
2022-08-24T02:39:57.538Z,23.50
2022-08-24T02:42:25.442Z,22.40
2022-08-24T02:44:53.787Z,23.50
2022-08-24T02:50:09.015Z,23.50
2022-08-24T02:52:38.503Z,23.40
2022-08-24T02:55:07.418Z,23.40
2022-08-24T03:00:10.666Z,23.30
2022-08-24T03:02:40.805Z,23.30
2022-08-24T03:05:11.267Z,23.30
2022-08-24T03:07:39.164Z,23.30
2022-08-24T03:10:08.198Z,23.30
2022-08-24T03:12:36.176Z,23.30
2022-08-24T03:15:05.220Z,23.20
2022-08-24T03:17:33.681Z,23.20
2022-08-24T03:20:03.238Z,23.20
2022-08-24T03:22:31.060Z,23.10
2022-08-24T03:24:58.874Z,23.10
2022-08-24T03:27:26.751Z,23.10
2022-08-24T03:29:54.547Z,23.10
2022-08-24T03:32:22.337Z,23.00
2022-08-24T03:34:50.170Z,23.00
2022-08-24T03:37:20.423Z,23.00
2022-08-24T03:39:49.826Z,23.00
2022-08-24T03:42:18.118Z,23.00
2022-08-24T03:44:45.929Z,22.90
2022-08-24T03:47:13.795Z,23.00
2022-08-24T03:49:41.718Z,22.90
2022-08-24T03:52:09.528Z,22.90
2022-08-24T03:54:38.748Z,22.90
2022-08-24T03:57:06.687Z,22.90
2022-08-24T03:59:34.481Z,22.90
2022-08-24T04:02:09.431Z,22.80
2022-08-24T04:04:40.802Z,22.80
2022-08-24T04:07:11.168Z,22.80
2022-08-24T04:09:40.332Z,22.70
2022-08-24T04:12:08.542Z,22.70
2022-08-24T04:14:36.427Z,22.70
2022-08-24T04:17:05.481Z,22.70
2022-08-24T04:19:34.674Z,22.60
2022-08-24T04:22:02.789Z,22.50
2022-08-24T04:24:31.940Z,22.50
2022-08-24T04:27:01.110Z,22.40
2022-08-24T04:29:28.956Z,22.40
2022-08-24T04:31:56.783Z,22.30
2022-08-24T04:34:24.702Z,22.30
2022-08-24T04:36:52.549Z,22.30
2022-08-24T04:39:20.349Z,22.20
2022-08-24T04:41:48.374Z,22.20
2022-08-24T04:46:47.965Z,22.20
2022-08-24T04:49:15.777Z,22.20
2022-08-24T04:51:43.623Z,22.20
2022-08-24T04:54:11.431Z,22.10
2022-08-24T04:56:39.672Z,22.10
2022-08-24T04:59:08.199Z,22.00
2022-08-24T05:01:37.684Z,22.00
2022-08-24T05:04:06.148Z,22.00
2022-08-24T05:06:34.105Z,22.00
2022-08-24T05:09:02.771Z,22.00
2022-08-24T05:11:31.086Z,22.10
2022-08-24T05:14:00.164Z,22.10
2022-08-24T05:16:28.848Z,22.10
2022-08-24T05:19:02.913Z,22.10
2022-08-24T05:21:30.963Z,22.20
2022-08-24T05:23:58.864Z,22.20
2022-08-24T05:26:30.981Z,22.20
2022-08-24T05:29:00.837Z,22.30
2022-08-24T05:31:31.076Z,22.30
2022-08-24T05:34:01.705Z,22.30
2022-08-24T05:36:31.670Z,22.40
2022-08-24T05:39:09.243Z,22.40
2022-08-24T05:41:39.086Z,22.40
2022-08-24T05:44:13.015Z,22.50
2022-08-24T05:46:40.917Z,22.50
2022-08-24T05:49:10.720Z,22.50
2022-08-24T05:51:39.992Z,22.50
2022-08-24T05:54:08.114Z,22.60
2022-08-24T05:56:36.015Z,22.60
2022-08-24T05:59:04.041Z,22.60
2022-08-24T06:01:33.267Z,21.50
2022-08-24T06:04:02.324Z,22.70
2022-08-24T06:09:01.530Z,22.80
2022-08-24T06:11:32.776Z,22.70
2022-08-24T06:14:07.878Z,22.70
2022-08-24T06:16:37.198Z,22.70
2022-08-24T06:19:06.493Z,22.70
2022-08-24T06:21:35.743Z,22.80
2022-08-24T06:24:03.771Z,22.80
2022-08-24T06:26:50.316Z,22.90
2022-08-24T06:29:19.665Z,22.90
2022-08-24T06:31:54.341Z,22.90
2022-08-24T06:34:25.949Z,22.90
2022-08-24T06:36:55.169Z,22.90
2022-08-24T06:39:23.411Z,23.00
2022-08-24T06:41:51.519Z,23.00
2022-08-24T06:44:19.414Z,23.00
2022-08-24T06:46:47.286Z,23.00
2022-08-24T06:49:15.389Z,23.10
2022-08-24T06:51:45.440Z,23.00
2022-08-24T06:54:17.402Z,23.10
2022-08-24T06:56:46.103Z,23.10
2022-08-24T06:59:13.977Z,23.20
2022-08-24T07:01:41.879Z,23.20
2022-08-24T07:04:09.771Z,23.00
2022-08-24T07:06:37.821Z,22.90
2022-08-24T07:09:06.254Z,22.90
2022-08-24T07:11:35.685Z,22.90
2022-08-24T07:14:03.965Z,23.00
2022-08-24T07:16:31.934Z,23.10
2022-08-24T07:19:00.803Z,23.10
2022-08-24T07:21:28.653Z,23.20
2022-08-24T07:23:57.766Z,23.30
2022-08-24T07:26:27.862Z,23.30
2022-08-24T07:29:04.803Z,23.40
2022-08-24T07:31:35.371Z,23.40
2022-08-24T07:34:04.538Z,23.50
2022-08-24T07:36:32.767Z,23.60
2022-08-24T07:39:00.741Z,23.60
2022-08-24T07:41:46.944Z,23.70
2022-08-24T07:44:19.813Z,23.70
2022-08-24T07:46:47.813Z,23.70
2022-08-24T07:49:36.091Z,23.70
2022-08-24T07:52:04.019Z,23.80
2022-08-24T07:54:32.021Z,25.70
2022-08-24T07:57:02.150Z,23.90
2022-08-24T07:59:31.641Z,23.90
2022-08-24T08:01:59.723Z,23.90
2022-08-24T08:04:27.707Z,23.90
2022-08-24T08:09:29.013Z,24.00
2022-08-24T08:11:56.804Z,24.10
2022-08-24T08:14:24.709Z,24.20
2022-08-24T08:19:22.334Z,24.30
2022-08-24T08:22:10.138Z,24.30
2022-08-24T08:24:39.682Z,24.40
2022-08-24T08:27:07.605Z,24.50
2022-08-24T08:29:36.301Z,24.50
2022-08-24T08:32:05.939Z,24.60
2022-08-24T08:34:34.035Z,24.60
2022-08-24T08:37:02.995Z,24.60
2022-08-24T08:39:31.739Z,24.70
2022-08-24T08:42:33.069Z,24.80
2022-08-24T08:45:10.444Z,24.90
2022-08-24T08:48:14.743Z,24.90
2022-08-24T08:51:12.061Z,24.90
2022-08-24T08:54:22.453Z,25.10
2022-08-24T08:57:08.531Z,25.10
2022-08-24T08:59:57.220Z,25.10
2022-08-24T09:02:45.076Z,25.10
2022-08-24T09:05:47.306Z,25.20
2022-08-24T09:08:26.593Z,25.20
2022-08-24T09:11:01.802Z,25.30
2022-08-24T09:13:43.552Z,25.30
2022-08-24T09:16:22.975Z,25.40
2022-08-24T09:19:07.978Z,25.50
2022-08-24T09:21:54.564Z,25.50
2022-08-24T09:24:34.215Z,25.60
2022-08-24T09:27:14.347Z,25.60
2022-08-24T09:29:59.662Z,25.60
2022-08-24T09:32:39.798Z,25.70
2022-08-24T09:35:15.383Z,25.90
2022-08-24T09:38:01.236Z,25.90
2022-08-24T09:40:37.958Z,26.00
2022-08-24T09:44:03.288Z,26.10
2022-08-24T09:47:11.954Z,26.30
2022-08-24T09:50:00.210Z,26.30
2022-08-24T09:52:53.569Z,26.40
2022-08-24T09:55:54.287Z,26.60
2022-08-24T09:58:32.848Z,26.70
2022-08-24T10:01:09.925Z,26.80
2022-08-24T10:03:56.675Z,26.90
2022-08-24T10:06:33.009Z,26.90
2022-08-24T10:09:23.019Z,27.00
2022-08-24T10:12:00.661Z,27.00
2022-08-24T10:14:47.018Z,27.10
2022-08-24T10:17:24.640Z,27.10
2022-08-24T10:20:23.927Z,27.20
2022-08-24T10:23:09.011Z,27.20
2022-08-24T10:25:42.355Z,27.40
2022-08-24T10:28:37.614Z,27.40
2022-08-24T10:31:22.574Z,27.60
2022-08-24T10:34:07.008Z,27.80
2022-08-24T10:37:29.749Z,28.00
2022-08-24T10:40:18.540Z,28.10
2022-08-24T10:43:37.007Z,28.30
2022-08-24T10:46:46.909Z,28.40
2022-08-24T10:50:08.459Z,28.50
2022-08-24T10:53:10.563Z,28.60
2022-08-24T10:55:57.988Z,28.70
2022-08-24T10:58:52.839Z,28.90
2022-08-24T11:01:42.206Z,28.80
2022-08-24T11:04:17.169Z,29.00
2022-08-24T11:07:16.390Z,29.20
2022-08-24T11:09:53.558Z,29.30
2022-08-24T11:12:28.871Z,29.40
2022-08-24T11:14:59.752Z,29.60
2022-08-24T11:17:32.379Z,29.60
2022-08-24T11:20:00.366Z,29.70
2022-08-24T11:22:34.067Z,29.80
2022-08-24T11:25:05.839Z,29.80
2022-08-24T11:27:37.644Z,29.80
2022-08-24T11:30:13.536Z,29.90
2022-08-24T11:32:46.953Z,29.90
2022-08-24T11:35:23.581Z,29.90
2022-08-24T11:37:55.311Z,29.90
2022-08-24T11:43:21.245Z,30.00
2022-08-24T11:46:07.522Z,30.10
2022-08-24T11:48:47.609Z,30.10
2022-08-24T11:51:28.584Z,30.00
2022-08-24T11:54:04.220Z,29.90
2022-08-24T11:56:42.301Z,29.90
2022-08-24T11:59:18.911Z,29.90
2022-08-24T12:01:52.415Z,29.90
2022-08-24T12:04:37.762Z,29.90
2022-08-24T12:07:15.940Z,29.90
2022-08-24T12:10:02.543Z,29.90
2022-08-24T12:12:38.648Z,29.90
2022-08-24T12:15:12.490Z,29.90
2022-08-24T12:17:44.025Z,29.80
2022-08-24T12:20:23.239Z,29.80
2022-08-24T12:22:53.651Z,29.80
2022-08-24T12:25:39.592Z,29.90
2022-08-24T12:28:07.953Z,29.90
2022-08-24T12:30:36.040Z,29.90
2022-08-24T12:33:08.145Z,29.90
2022-08-24T12:35:43.375Z,30.00
2022-08-24T12:38:18.072Z,30.00
2022-08-24T12:40:52.432Z,30.00
2022-08-24T12:43:26.292Z,30.20
2022-08-24T12:45:59.408Z,30.20
2022-08-24T12:48:34.972Z,30.30
2022-08-24T12:51:17.344Z,30.20
2022-08-24T12:54:13.374Z,30.30
2022-08-24T12:57:07.729Z,30.30
2022-08-24T12:59:41.633Z,30.40
2022-08-24T13:02:28.906Z,30.40
2022-08-24T13:05:00.380Z,30.60
2022-08-24T13:07:38.831Z,30.60
2022-08-24T13:10:13.552Z,30.60
2022-08-24T13:13:12.956Z,30.60
2022-08-24T13:16:00.440Z,30.70
2022-08-24T13:18:53.536Z,30.70
2022-08-24T13:21:47.389Z,30.60
2022-08-24T13:24:54.454Z,30.70
2022-08-24T13:28:01.384Z,30.70
2022-08-24T13:30:33.926Z,30.70
2022-08-24T13:33:06.403Z,30.70
2022-08-24T13:36:00.816Z,30.80
2022-08-24T13:38:57.997Z,30.80
2022-08-24T13:41:48.608Z,30.90
2022-08-24T13:44:25.186Z,30.90
2022-08-24T13:47:01.593Z,31.00
2022-08-24T13:49:46.184Z,31.10
2022-08-24T13:52:24.815Z,31.10
2022-08-24T13:55:13.540Z,31.20
2022-08-24T13:57:46.306Z,31.20
2022-08-24T14:00:40.338Z,31.20
2022-08-24T14:03:21.961Z,31.20
2022-08-24T14:05:57.738Z,31.20
2022-08-24T14:08:36.134Z,31.20
2022-08-24T14:11:10.827Z,31.20
2022-08-24T14:13:57.641Z,31.30
2022-08-24T14:16:56.845Z,31.40
2022-08-24T14:19:31.959Z,31.50
2022-08-24T14:22:04.446Z,31.40
2022-08-24T14:24:45.312Z,31.40
2022-08-24T14:27:38.233Z,31.30
2022-08-24T14:30:45.508Z,31.40
2022-08-24T14:33:28.152Z,31.40
2022-08-24T14:36:14.946Z,31.50
2022-08-24T14:39:06.352Z,31.50
2022-08-24T14:41:54.552Z,31.60
2022-08-24T14:44:58.390Z,31.60
2022-08-24T14:47:38.364Z,31.60
2022-08-24T14:50:13.180Z,31.70
2022-08-24T14:52:55.901Z,31.70
2022-08-24T14:55:31.647Z,31.80
2022-08-24T14:58:21.695Z,31.90
2022-08-24T15:01:24.804Z,32.10
2022-08-24T15:04:07.330Z,32.10
2022-08-24T15:06:43.757Z,32.20
2022-08-24T15:09:18.943Z,32.40
2022-08-24T15:11:51.456Z,32.50
2022-08-24T15:14:37.438Z,32.50
2022-08-24T15:17:10.454Z,32.60
2022-08-24T15:19:50.232Z,32.50
2022-08-24T15:22:27.292Z,32.50
2022-08-24T15:25:03.686Z,32.50
2022-08-24T15:27:41.624Z,32.40
2022-08-24T15:30:21.025Z,32.40
2022-08-24T15:32:51.780Z,32.40
2022-08-24T15:35:30.172Z,32.40
2022-08-24T15:37:58.449Z,32.40
2022-08-24T15:40:30.119Z,32.40
2022-08-24T15:43:01.321Z,32.40
2022-08-24T15:45:29.192Z,32.40
2022-08-24T15:47:59.010Z,32.40
2022-08-24T15:50:31.438Z,32.40
2022-08-24T15:53:01.867Z,32.30
2022-08-24T15:55:36.741Z,32.20
2022-08-24T15:58:19.489Z,32.10
2022-08-24T16:01:05.087Z,32.10
2022-08-24T16:03:47.632Z,32.00
2022-08-24T16:06:25.855Z,32.00
2022-08-24T16:09:03.691Z,32.10
2022-08-24T16:11:35.524Z,32.00
2022-08-24T16:14:03.821Z,32.00
2022-08-24T16:16:37.869Z,32.00
2022-08-24T16:19:08.771Z,32.00
2022-08-24T16:21:52.003Z,32.00
2022-08-24T16:24:31.457Z,32.00
2022-08-24T16:27:03.914Z,32.00
2022-08-24T16:29:46.050Z,31.90
2022-08-24T16:32:22.501Z,31.90
2022-08-24T16:35:17.701Z,31.80
2022-08-24T16:37:47.061Z,31.80
2022-08-24T16:40:15.491Z,31.80
2022-08-24T16:42:43.387Z,31.80
2022-08-24T16:45:14.837Z,31.80
2022-08-24T16:47:42.635Z,31.90
2022-08-24T16:50:11.143Z,32.00
2022-08-24T16:52:38.922Z,32.00
2022-08-24T16:55:09.179Z,32.10
2022-08-24T16:57:41.489Z,32.10
2022-08-24T17:00:12.372Z,32.00
2022-08-24T17:02:40.230Z,32.00
2022-08-24T17:05:08.880Z,32.00
2022-08-24T17:10:10.024Z,32.10
2022-08-24T17:12:38.528Z,32.10
2022-08-24T17:15:09.315Z,32.00
2022-08-24T17:17:37.292Z,32.00
2022-08-24T17:20:09.535Z,32.00
2022-08-24T17:22:37.581Z,32.00
2022-08-24T17:25:06.401Z,32.00
2022-08-24T17:27:35.720Z,32.00
2022-08-24T17:30:05.476Z,32.10
2022-08-24T17:32:33.595Z,32.10
2022-08-24T17:35:03.071Z,32.20
2022-08-24T17:37:31.197Z,32.50
2022-08-24T17:39:59.720Z,33.10
2022-08-24T17:42:49.629Z,31.20
2022-08-24T17:45:16.654Z,33.60
2022-08-24T17:47:45.178Z,34.30
2022-08-24T17:50:15.631Z,35.20
2022-08-24T17:52:44.147Z,35.40
2022-08-24T17:55:13.589Z,35.90
2022-08-24T17:57:44.575Z,35.80
2022-08-24T18:02:45.678Z,36.00
2022-08-24T18:05:14.401Z,35.90
2022-08-24T18:07:55.116Z,35.60
2022-08-24T18:10:25.358Z,35.00
2022-08-24T18:12:53.440Z,34.90
2022-08-24T18:15:22.821Z,34.70
2022-08-24T18:18:04.764Z,34.40
2022-08-24T18:20:37.241Z,33.80
2022-08-24T18:23:05.175Z,33.50
2022-08-24T18:25:43.413Z,33.10
2022-08-24T18:28:11.249Z,32.60
2022-08-24T18:30:41.592Z,31.80
2022-08-24T18:33:09.395Z,31.70
2022-08-24T18:35:37.471Z,31.30
2022-08-24T18:38:05.335Z,31.00
2022-08-24T18:40:33.743Z,30.60
2022-08-24T18:43:03.755Z,30.60
2022-08-24T18:45:33.808Z,30.50
2022-08-24T18:48:03.370Z,30.20
2022-08-24T18:50:32.724Z,30.00
2022-08-24T18:53:00.782Z,29.90
2022-08-24T18:55:28.778Z,29.90
2022-08-24T18:57:56.578Z,29.80
2022-08-24T19:00:24.705Z,29.70
2022-08-24T19:02:52.622Z,29.70
2022-08-24T19:05:25.436Z,29.60
2022-08-24T19:07:55.263Z,29.40
2022-08-24T19:10:25.785Z,29.30
2022-08-24T19:12:57.415Z,29.20
2022-08-24T19:15:38.996Z,29.20
2022-08-24T19:18:09.536Z,29.00
2022-08-24T19:20:42.399Z,28.90
2022-08-24T19:23:17.307Z,28.90
2022-08-24T19:25:46.434Z,28.90
2022-08-24T19:28:14.580Z,28.70
2022-08-24T19:30:43.817Z,28.70
2022-08-24T19:33:25.240Z,28.70
2022-08-24T19:35:54.789Z,28.70
2022-08-24T19:38:25.883Z,28.60
2022-08-24T19:40:55.003Z,28.60
2022-08-24T19:46:05.174Z,28.60
2022-08-24T19:48:35.519Z,28.60
2022-08-24T19:51:06.927Z,28.60
2022-08-24T19:53:37.857Z,28.40
2022-08-24T19:56:06.654Z,28.40
2022-08-24T19:58:40.442Z,28.20
2022-08-24T20:01:13.252Z,28.20
2022-08-24T20:03:41.445Z,28.00
2022-08-24T20:06:10.822Z,27.80
2022-08-24T20:08:39.252Z,27.80
2022-08-24T20:11:08.233Z,27.70
2022-08-24T20:16:06.229Z,27.70
2022-08-24T20:18:39.648Z,27.70
2022-08-24T20:21:08.248Z,27.70
2022-08-24T20:23:37.522Z,27.60
2022-08-24T20:26:07.864Z,27.60
2022-08-24T20:28:41.095Z,27.60
2022-08-24T20:31:09.304Z,27.60
2022-08-24T20:33:37.178Z,27.60
2022-08-24T20:36:05.857Z,27.60
2022-08-24T20:38:34.469Z,27.60
2022-08-24T20:41:03.689Z,27.60
2022-08-24T20:43:31.511Z,27.60
2022-08-24T20:45:59.416Z,27.60
2022-08-24T20:48:30.850Z,27.60
2022-08-24T20:50:58.787Z,27.50
2022-08-24T20:53:27.283Z,27.50
2022-08-24T20:55:57.183Z,27.50
2022-08-24T20:58:26.846Z,27.50
2022-08-24T21:00:54.796Z,27.50
2022-08-24T21:03:22.774Z,27.50
2022-08-24T21:05:52.321Z,27.50
2022-08-24T21:08:20.621Z,27.40
2022-08-24T21:10:48.393Z,27.40
2022-08-24T21:13:16.283Z,27.40
2022-08-24T21:15:46.010Z,27.30
2022-08-24T21:18:13.929Z,27.40
2022-08-24T21:20:44.767Z,27.30
2022-08-24T21:23:30.242Z,27.30
2022-08-24T21:25:58.858Z,27.20
2022-08-24T21:28:27.339Z,27.10
2022-08-24T21:30:56.638Z,27.10
2022-08-24T21:33:42.168Z,27.00
2022-08-24T21:36:11.589Z,26.90
2022-08-24T21:38:39.495Z,26.90
2022-08-24T21:41:13.179Z,26.70
2022-08-24T21:43:40.930Z,26.70
2022-08-24T21:46:10.473Z,26.60
2022-08-24T21:48:39.830Z,26.60
2022-08-24T21:51:07.939Z,26.60
2022-08-24T21:53:35.765Z,26.60
2022-08-24T21:56:03.832Z,26.50
2022-08-24T21:58:31.736Z,26.50
2022-08-24T22:01:00.542Z,26.30
2022-08-24T22:03:31.671Z,26.30
2022-08-24T22:06:08.487Z,26.20
2022-08-24T22:08:36.728Z,26.10
2022-08-24T22:11:05.221Z,26.10
2022-08-24T22:13:34.031Z,26.10
2022-08-24T22:16:03.057Z,26.00
2022-08-24T22:18:32.368Z,26.00
2022-08-24T22:21:00.844Z,26.00
2022-08-24T22:23:28.622Z,26.00
2022-08-24T22:25:56.406Z,25.90
2022-08-24T22:28:24.565Z,25.90
2022-08-24T22:30:52.425Z,25.70
2022-08-24T22:33:20.284Z,25.70
2022-08-24T22:35:50.356Z,25.60
2022-08-24T22:38:18.445Z,25.60
2022-08-24T22:40:46.254Z,25.50
2022-08-24T22:43:14.051Z,25.50
2022-08-24T22:45:41.962Z,25.50
2022-08-24T22:48:09.745Z,25.50
2022-08-24T22:50:37.584Z,25.40
2022-08-24T22:53:06.860Z,25.40
2022-08-24T22:55:34.768Z,25.50
2022-08-24T22:58:02.695Z,25.40
2022-08-24T23:02:59.925Z,25.30
2022-08-24T23:05:27.892Z,25.30
2022-08-24T23:07:55.773Z,25.30
2022-08-24T23:10:25.529Z,25.30
2022-08-24T23:12:53.297Z,25.30
2022-08-24T23:15:21.088Z,25.30
2022-08-24T23:17:48.859Z,25.30
2022-08-24T23:20:15.692Z,25.30
2022-08-24T23:22:43.586Z,25.30
2022-08-24T23:25:13.649Z,25.20
2022-08-24T23:27:46.555Z,25.20
2022-08-24T23:30:17.209Z,25.10
2022-08-24T23:32:45.067Z,25.10
2022-08-24T23:35:13.021Z,25.10
2022-08-24T23:37:40.832Z,25.10
2022-08-24T23:40:09.607Z,25.10
2022-08-24T23:42:37.663Z,25.00
2022-08-24T23:45:08.280Z,24.90
2022-08-24T23:47:39.631Z,24.90
2022-08-24T23:50:11.106Z,24.90
2022-08-24T23:52:40.055Z,24.80
2022-08-24T23:55:21.158Z,24.80
2022-08-24T23:57:50.695Z,24.80
